Gorham, NH (03581)

10:42 AM EST on February 14, 2016 (GMT -0500)
Berlin Norwegian village | | Change Station
CLOSE
Current Station
Personal Weather Station
Location: Berlin, NH
Elevation: 1099 ft
Nearby Weather Stations

Elev 1099 ft 44.48 °N, 71.17 °W | Updated 8 seconds ago

Clear
Clear
-7.6 °F
Feels Like -8 °F
N
2.2
Wind Variable Wind from SE
Gusts 3.8 mph

Today
High -- | Low -- °F
--% Chance of Precip.
Yesterday
High -- | Low -- °F
Precip. -- in
Pressure 30.43 in
Visibility 10.0 miles
Clouds Clear
Windchill -8 °F
Dew Point -29 °F
Humidity 27%
Rainfall 0.00 in
Snow Depth Not available.
6:47 AM 5:12 PM
Waxing Crescent, 42% visible
METAR KHIE 141452Z AUTO VRB03KT 10SM CLR M24/M31 A3031 RMK AO2 SLP304 T12441306 50006
Pressure 30.43 in
Visibility 10.0 miles
Clouds Clear
Windchill -8 °F
Dew Point -29 °F
Humidity 27%
Rainfall 0.00 in
Snow Depth Not available.
6:47 AM 5:12 PM
Waxing Crescent, 42% visible
METAR KHIE 141452Z AUTO VRB03KT 10SM CLR M24/M31 A3031 RMK AO2 SLP304 T12441306 50006

10-Day Weather Forecast

Almanac

Astronomy

Feb. 14, 2016 Rise Set
Actual Time
Civil Twilight
Nautical Twilight
Astronomical Twilight
Moon
Length of Visible Light
Length of Day
Tomorrow will be .
, % of the Moon is Illuminated

Today's Extremes

State Highs State Lows

Community

WunderPhotos

Upload Photos

1,892,802 photos uploaded!

WunderBlog® & News

Nearby

Air Quality

  Air Quality AQ Index Pollutant
Not available.

Snow Depth

Station Depth Elevation

Earthquake Activity

City Distance Mag. Time & Date
Minimum magnitude displayed is 2.5.

Coastal Water Temperatures

Place Temperature

Stations

Nearby Weather Stations

Station Location Temp. Windchill Dew Point Humidity Wind Precip. Elev Updated Type
                   

Watches & Warnings

There are currently no watches in effect.